Time;durP1;ratioP1;P1;durP2;ratioP2;P2;SDS_P1;SDS_P2;PMS_P1;PMS_P2;Temp;Humidity;BMP_temperature;BMP_pressure;BME280_temperature;BME280_humidity;BME280_pressure;Samples;Min_cycle;Max_cycle;Signal;HPM_P1;HPM_P2
2021/08/07 00:02:03;;;;;;;18.00;16.80;;;16.10;99.90;;;;;;5050332;28;20468;-70
2021/08/07 00:04:31;;;;;;;21.70;20.37;;;16.10;99.90;;;;;;5045327;28;20460;-68
2021/08/07 00:06:58;;;;;;;19.93;18.67;;;16.00;99.90;;;;;;5052524;28;20462;-69
2021/08/07 00:09:25;;;;;;;19.33;18.23;;;16.00;99.90;;;;;;5044163;28;20462;-68
2021/08/07 00:11:52;;;;;;;18.20;17.20;;;15.90;99.90;;;;;;5052145;28;20462;-69
2021/08/07 00:14:19;;;;;;;19.40;18.20;;;15.80;99.90;;;;;;5050790;28;20464;-72
2021/08/07 00:16:47;;;;;;;20.17;18.70;;;15.80;99.90;;;;;;5018606;28;1115984;-71
2021/08/07 00:19:15;;;;;;;19.80;18.60;;;15.70;99.90;;;;;;5055076;28;20204;-71
2021/08/07 00:21:42;;;;;;;18.03;17.03;;;15.70;99.90;;;;;;5050838;28;20482;-69
2021/08/07 00:24:10;;;;;;;19.07;17.93;;;15.70;99.90;;;;;;5053825;28;20452;-70
2021/08/07 00:26:36;;;;;;;19.20;18.00;;;15.70;99.90;;;;;;5058740;28;20569;-69
2021/08/07 00:29:04;;;;;;;18.53;17.40;;;15.70;99.90;;;;;;5052918;28;20463;-69
2021/08/07 00:31:31;;;;;;;18.60;17.40;;;15.70;99.90;;;;;;5052088;28;20459;-68
2021/08/07 00:33:58;;;;;;;18.80;17.43;;;15.70;99.90;;;;;;5052486;28;20462;-68
2021/08/07 00:36:26;;;;;;;19.33;18.13;;;15.70;99.90;;;;;;5056878;28;20485;-68
2021/08/07 00:38:53;;;;;;;18.37;17.30;;;15.70;99.90;;;;;;5056838;28;20467;-71
2021/08/07 00:41:20;;;;;;;19.83;18.00;;;15.70;99.90;;;;;;5053268;28;20463;-69
2021/08/07 00:43:47;;;;;;;17.80;16.90;;;15.60;99.90;;;;;;5055384;28;20460;-68
2021/08/07 00:46:15;;;;;;;19.00;17.87;;;15.60;99.90;;;;;;5055992;28;20958;-69
2021/08/07 00:48:43;;;;;;;19.47;17.53;;;15.50;99.90;;;;;;5054114;28;20983;-68
2021/08/07 00:51:11;;;;;;;18.87;17.87;;;15.40;99.90;;;;;;5053961;28;20464;-68
2021/08/07 00:53:39;;;;;;;18.63;17.70;;;15.40;99.90;;;;;;5053568;28;20469;-68
2021/08/07 00:56:07;;;;;;;19.20;18.03;;;15.30;99.90;;;;;;5055697;28;20481;-70
2021/08/07 00:58:33;;;;;;;18.80;17.80;;;15.30;99.90;;;;;;5057415;28;20460;-70
2021/08/07 01:01:04;;;;;;;19.00;17.90;;;15.20;99.90;;;;;;5058481;28;20457;-69
2021/08/07 01:03:34;;;;;;;19.17;17.97;;;15.10;99.90;;;;;;5055439;28;20458;-68
2021/08/07 01:06:12;;;;;;;19.60;18.40;;;15.10;99.90;;;;;;5058183;28;20464;-69
2021/08/07 01:08:47;;;;;;;19.27;18.07;;;15.10;99.90;;;;;;5050376;28;20458;-68
2021/08/07 01:11:20;;;;;;;18.53;17.63;;;15.00;99.90;;;;;;5057433;28;20459;-70
2021/08/07 01:13:51;;;;;;;19.10;17.63;;;15.00;99.90;;;;;;5052715;28;20521;-68
2021/08/07 01:16:24;;;;;;;18.97;17.80;;;15.00;99.90;;;;;;5061815;28;20478;-69
2021/08/07 01:18:53;;;;;;;19.23;17.93;;;14.90;99.90;;;;;;5054134;28;20455;-68
2021/08/07 01:21:26;;;;;;;19.70;18.50;;;14.80;99.90;;;;;;5056225;28;21247;-68
2021/08/07 01:24:00;;;;;;;19.60;18.50;;;14.80;99.90;;;;;;5052249;28;20475;-68
2021/08/07 01:26:33;;;;;;;19.37;18.17;;;14.80;99.90;;;;;;5058708;28;20469;-68
2021/08/07 01:29:01;;;;;;;19.60;18.30;;;14.70;99.90;;;;;;5048699;28;20459;-68
2021/08/07 01:31:29;;;;;;;19.70;18.50;;;14.70;99.90;;;;;;5058007;28;20542;-68
2021/08/07 01:33:57;;;;;;;19.00;17.63;;;14.70;99.90;;;;;;5051038;28;20482;-68
2021/08/07 01:36:25;;;;;;;19.80;18.60;;;14.60;99.90;;;;;;5047259;28;20466;-68
2021/08/07 01:38:52;;;;;;;20.60;19.40;;;14.50;99.90;;;;;;5049758;28;20464;-68
2021/08/07 01:41:20;;;;;;;20.73;19.47;;;14.40;99.90;;;;;;5052990;28;20463;-70
2021/08/07 01:43:48;;;;;;;20.70;19.27;;;14.30;99.90;;;;;;5050815;28;23947;-68
2021/08/07 01:46:18;;;;;;;22.20;20.40;;;14.30;99.90;;;;;;5058433;28;20455;-68
2021/08/07 01:48:52;;;;;;;22.23;20.30;;;14.30;99.90;;;;;;5051351;28;20506;-68
2021/08/07 01:51:21;;;;;;;20.70;19.33;;;14.20;99.90;;;;;;5052624;28;20853;-70
2021/08/07 01:53:51;;;;;;;21.23;19.83;;;14.20;99.90;;;;;;5052832;28;20499;-67
2021/08/07 01:56:23;;;;;;;21.60;20.30;;;14.20;99.90;;;;;;5050638;28;20463;-68
2021/08/07 01:58:53;;;;;;;22.17;20.30;;;14.20;99.90;;;;;;5051975;28;20821;-70
2021/08/07 02:01:25;;;;;;;22.00;20.53;;;14.10;99.90;;;;;;5050692;28;20474;-68
2021/08/07 02:03:54;;;;;;;22.00;20.67;;;14.10;99.90;;;;;;5046198;28;20543;-68
2021/08/07 02:06:23;;;;;;;22.87;20.97;;;14.00;99.90;;;;;;5051961;28;20490;-68
2021/08/07 02:08:51;;;;;;;22.90;21.43;;;14.00;99.90;;;;;;5053772;28;20463;-68
2021/08/07 02:11:19;;;;;;;23.00;20.97;;;14.00;99.90;;;;;;5056598;28;20481;-67
2021/08/07 02:13:47;;;;;;;22.70;21.30;;;14.00;99.90;;;;;;5053155;28;20820;-69
2021/08/07 02:16:15;;;;;;;23.23;21.57;;;14.00;99.90;;;;;;5055100;28;20487;-68
2021/08/07 02:18:46;;;;;;;27.70;21.27;;;14.00;99.90;;;;;;5047169;28;20492;-70
2021/08/07 02:21:13;;;;;;;21.33;20.00;;;14.00;99.90;;;;;;5053827;28;20470;-69
2021/08/07 02:23:41;;;;;;;24.70;21.80;;;14.00;99.90;;;;;;5052726;28;20455;-68
2021/08/07 02:26:10;;;;;;;22.73;20.73;;;14.00;99.90;;;;;;5051232;28;20468;-68
2021/08/07 02:28:37;;;;;;;23.37;21.20;;;14.10;99.90;;;;;;5050255;28;20463;-70
2021/08/07 02:31:06;;;;;;;29.03;21.90;;;14.10;99.90;;;;;;5058584;28;20450;-68
2021/08/07 02:33:35;;;;;;;27.50;21.90;;;14.10;99.90;;;;;;5052877;28;20815;-68
2021/08/07 02:36:05;;;;;;;22.83;20.90;;;14.10;99.90;;;;;;5054308;28;20491;-68
2021/08/07 02:38:34;;;;;;;22.23;20.53;;;14.10;99.90;;;;;;5057066;28;20856;-68
2021/08/07 02:41:02;;;;;;;23.30;21.07;;;14.10;99.90;;;;;;5048483;28;20447;-68
2021/08/07 02:43:31;;;;;;;22.87;20.80;;;14.00;99.90;;;;;;5055508;28;20487;-70
2021/08/07 02:45:59;;;;;;;23.40;21.50;;;14.10;99.90;;;;;;5059082;28;20459;-68
2021/08/07 02:48:27;;;;;;;23.60;21.37;;;14.10;99.90;;;;;;5057671;28;20489;-69
2021/08/07 02:50:55;;;;;;;24.93;20.87;;;14.10;99.90;;;;;;5049353;28;20446;-68
2021/08/07 02:53:25;;;;;;;22.03;20.10;;;14.20;99.90;;;;;;5054464;28;20459;-68
2021/08/07 02:55:54;;;;;;;24.57;21.13;;;14.20;99.90;;;;;;5051545;28;20455;-68
2021/08/07 02:58:22;;;;;;;22.43;20.63;;;14.20;99.90;;;;;;5042744;28;20475;-68
2021/08/07 03:00:49;;;;;;;22.53;20.70;;;14.20;99.90;;;;;;5052587;28;20459;-70
2021/08/07 03:03:16;;;;;;;22.50;20.57;;;14.20;99.90;;;;;;5049068;28;20452;-69
2021/08/07 03:05:43;;;;;;;22.43;20.53;;;14.30;99.90;;;;;;5048662;28;20976;-68
2021/08/07 03:08:10;;;;;;;23.10;21.40;;;14.30;99.90;;;;;;5050438;28;20537;-69
2021/08/07 03:10:38;;;;;;;27.00;20.80;;;14.40;99.90;;;;;;5054016;28;20459;-70
2021/08/07 03:13:08;;;;;;;23.17;21.20;;;14.40;99.90;;;;;;5056835;28;20467;-69
2021/08/07 03:15:36;;;;;;;23.47;21.70;;;14.50;99.90;;;;;;5053261;28;20456;-69
2021/08/07 03:18:03;;;;;;;24.03;20.93;;;14.50;99.90;;;;;;5053465;28;20479;-68
2021/08/07 03:20:33;;;;;;;24.47;21.90;;;14.50;99.90;;;;;;5057266;28;20530;-68
2021/08/07 03:23:02;;;;;;;24.83;22.40;;;14.50;99.90;;;;;;5048965;28;20459;-68
2021/08/07 03:25:29;;;;;;;23.33;21.20;;;14.40;99.90;;;;;;5053216;28;20953;-68
2021/08/07 03:27:57;;;;;;;22.27;20.67;;;14.40;99.90;;;;;;5052406;28;20930;-68
2021/08/07 03:30:24;;;;;;;23.63;21.93;;;14.30;99.90;;;;;;5055602;28;20461;-71
2021/08/07 03:32:51;;;;;;;22.70;20.93;;;14.30;99.90;;;;;;5054816;28;20467;-68
2021/08/07 03:35:19;;;;;;;23.73;21.60;;;14.30;99.90;;;;;;5048046;28;20463;-68
2021/08/07 03:37:46;;;;;;;22.07;20.67;;;14.20;99.90;;;;;;5053224;28;20486;-68
2021/08/07 03:40:14;;;;;;;23.97;21.77;;;14.20;99.90;;;;;;5047124;28;20495;-67
2021/08/07 03:42:41;;;;;;;23.47;21.40;;;14.20;99.90;;;;;;5058117;28;20470;-68
2021/08/07 03:45:11;;;;;;;23.37;21.40;;;14.20;99.90;;;;;;5053303;28;20468;-69
2021/08/07 03:47:49;;;;;;;22.27;20.50;;;14.30;99.90;;;;;;5045704;28;20467;-69
2021/08/07 03:50:16;;;;;;;22.97;20.73;;;14.30;99.90;;;;;;5051675;28;20455;-69
2021/08/07 03:52:43;;;;;;;23.20;20.83;;;14.20;99.90;;;;;;5045668;28;20463;-66
2021/08/07 03:55:11;;;;;;;21.63;19.83;;;14.20;99.90;;;;;;5050815;28;20492;-67
2021/08/07 03:57:53;;;;;;;24.53;20.60;;;14.30;99.90;;;;;;5050431;28;21095;-68
2021/08/07 04:00:23;;;;;;;22.63;20.43;;;14.30;99.90;;;;;;5047284;28;21100;-70
2021/08/07 04:02:50;;;;;;;22.50;20.50;;;14.40;99.90;;;;;;5059808;28;20463;-68
2021/08/07 04:05:17;;;;;;;23.17;20.30;;;14.40;99.90;;;;;;5046421;28;20478;-69
2021/08/07 04:07:45;;;;;;;23.87;20.40;;;14.50;99.90;;;;;;5049429;28;20466;-70
2021/08/07 04:10:12;;;;;;;22.10;19.93;;;14.50;99.90;;;;;;5055303;28;20490;-68
2021/08/07 04:12:39;;;;;;;24.57;21.00;;;14.50;99.90;;;;;;5056623;28;20490;-69
2021/08/07 04:15:07;;;;;;;23.80;20.10;;;14.60;99.90;;;;;;5051225;28;20466;-70
2021/08/07 04:17:39;;;;;;;21.87;19.70;;;14.60;99.90;;;;;;5051477;28;20494;-69
2021/08/07 04:20:07;;;;;;;20.77;19.10;;;14.60;99.90;;;;;;5046058;28;20460;-68
2021/08/07 04:22:37;;;;;;;22.70;20.57;;;14.70;99.90;;;;;;5054672;28;20513;-68
2021/08/07 04:25:06;;;;;;;23.27;20.33;;;14.70;99.90;;;;;;5052104;28;20466;-68
2021/08/07 04:27:33;;;;;;;23.50;21.10;;;14.70;99.90;;;;;;5053582;28;20481;-68
2021/08/07 04:30:00;;;;;;;22.70;20.90;;;14.70;99.90;;;;;;5048940;28;21030;-69
2021/08/07 04:32:27;;;;;;;22.53;20.33;;;14.70;99.90;;;;;;5051305;28;20482;-67
2021/08/07 04:34:55;;;;;;;21.67;19.50;;;14.80;99.90;;;;;;5055579;28;20466;-68
2021/08/07 04:37:22;;;;;;;22.30;20.23;;;14.80;99.90;;;;;;5052604;28;20459;-70
2021/08/07 04:39:49;;;;;;;22.20;20.17;;;14.80;99.90;;;;;;5054045;28;20474;-69
2021/08/07 04:42:16;;;;;;;22.93;20.77;;;14.80;99.90;;;;;;5051787;28;20458;-68
2021/08/07 04:44:42;;;;;;;25.60;19.93;;;14.80;99.90;;;;;;5053444;28;20463;-68
2021/08/07 04:47:09;;;;;;;23.03;20.47;;;14.80;99.90;;;;;;5051871;28;20933;-69
2021/08/07 04:49:36;;;;;;;27.63;21.00;;;14.80;99.90;;;;;;5051487;28;20945;-70
2021/08/07 04:52:05;;;;;;;28.47;22.00;;;14.90;99.90;;;;;;5048515;28;20470;-68
2021/08/07 04:54:32;;;;;;;21.87;19.80;;;14.90;99.90;;;;;;5052818;28;20506;-69
2021/08/07 04:56:59;;;;;;;22.60;20.27;;;14.90;99.90;;;;;;5046597;28;20903;-68
2021/08/07 04:59:26;;;;;;;36.47;21.30;;;15.00;99.90;;;;;;5053708;28;20588;-71
2021/08/07 05:01:53;;;;;;;24.23;21.60;;;15.00;99.90;;;;;;5050573;28;20475;-69
2021/08/07 05:04:19;;;;;;;22.83;20.60;;;15.10;99.90;;;;;;5051268;28;20466;-69
2021/08/07 05:06:46;;;;;;;22.03;19.73;;;15.20;99.90;;;;;;5052456;28;20469;-69
2021/08/07 05:09:14;;;;;;;21.17;19.53;;;15.20;99.90;;;;;;5054051;28;20510;-71
2021/08/07 05:11:41;;;;;;;21.23;19.30;;;15.20;99.90;;;;;;5056639;28;20451;-68
2021/08/07 05:14:08;;;;;;;23.50;19.53;;;15.30;99.90;;;;;;5055078;28;20458;-71
2021/08/07 05:16:35;;;;;;;22.67;20.03;;;15.30;99.90;;;;;;5051601;28;20533;-68
2021/08/07 05:19:02;;;;;;;21.30;19.30;;;15.40;99.90;;;;;;5053119;28;20488;-72
2021/08/07 05:21:29;;;;;;;21.80;19.77;;;15.40;99.90;;;;;;5046962;28;20460;-68
2021/08/07 05:23:56;;;;;;;21.57;19.67;;;15.50;99.90;;;;;;5055347;28;20463;-69
2021/08/07 05:26:24;;;;;;;22.07;19.90;;;15.50;99.90;;;;;;5047881;28;20540;-69
2021/08/07 05:28:51;;;;;;;22.87;20.77;;;15.50;99.90;;;;;;5053745;28;20820;-70
2021/08/07 05:31:18;;;;;;;24.37;19.60;;;15.50;99.90;;;;;;5054511;28;20460;-67
2021/08/07 05:33:45;;;;;;;22.00;20.30;;;15.50;99.90;;;;;;5056983;28;20467;-68
2021/08/07 05:36:12;;;;;;;21.83;20.20;;;15.60;99.90;;;;;;5056533;28;20474;-69
2021/08/07 05:38:40;;;;;;;21.13;19.40;;;15.70;99.90;;;;;;5055305;28;21044;-71
2021/08/07 05:41:07;;;;;;;21.20;19.53;;;15.80;99.90;;;;;;5054918;28;20463;-70
2021/08/07 05:43:36;;;;;;;21.70;19.93;;;15.80;99.90;;;;;;5055965;28;20816;-69
2021/08/07 05:46:03;;;;;;;20.10;18.47;;;15.90;99.90;;;;;;5054586;28;20992;-71
2021/08/07 05:48:32;;;;;;;23.13;18.83;;;15.90;99.90;;;;;;5048795;28;20479;-72
2021/08/07 05:50:59;;;;;;;20.57;18.73;;;15.90;99.90;;;;;;5050309;28;20472;-69
2021/08/07 05:53:26;;;;;;;22.13;19.03;;;15.90;99.90;;;;;;5051796;28;20981;-72
2021/08/07 05:55:54;;;;;;;20.53;18.30;;;16.00;99.90;;;;;;5056874;28;20462;-69
2021/08/07 05:58:21;;;;;;;20.43;18.53;;;16.10;99.90;;;;;;5057102;28;20487;-69
2021/08/07 06:00:50;;;;;;;22.20;18.23;;;16.20;99.90;;;;;;5059707;28;20465;-70
2021/08/07 06:03:17;;;;;;;20.47;18.77;;;16.30;99.90;;;;;;5053124;28;20462;-70
2021/08/07 06:05:44;;;;;;;20.40;18.60;;;16.40;99.90;;;;;;5045741;28;20630;-69
2021/08/07 06:08:11;;;;;;;21.33;19.17;;;16.50;99.90;;;;;;5054880;28;21311;-71
2021/08/07 06:10:38;;;;;;;19.97;18.50;;;16.60;99.90;;;;;;5053344;28;20465;-69
2021/08/07 06:13:05;;;;;;;22.37;17.63;;;16.70;99.90;;;;;;5051207;28;20466;-69
2021/08/07 06:15:32;;;;;;;23.60;18.67;;;16.80;99.90;;;;;;5049724;28;20476;-70
2021/08/07 06:18:01;;;;;;;20.97;18.63;;;16.90;99.90;;;;;;5054142;28;20469;-69
2021/08/07 06:20:28;;;;;;;19.03;17.47;;;17.00;99.90;;;;;;5048638;28;20462;-69
2021/08/07 06:22:56;;;;;;;19.43;17.67;;;17.00;99.90;;;;;;5051170;28;20471;-70
2021/08/07 06:25:23;;;;;;;19.83;18.00;;;17.10;99.90;;;;;;5056657;28;20529;-69
2021/08/07 06:27:53;;;;;;;18.37;16.93;;;17.20;99.90;;;;;;5052008;28;20463;-69
2021/08/07 06:30:21;;;;;;;21.23;16.90;;;17.40;99.90;;;;;;5053271;28;20466;-73
2021/08/07 06:32:48;;;;;;;18.83;16.90;;;17.50;99.90;;;;;;5053270;28;20460;-69
2021/08/07 06:35:17;;;;;;;18.60;17.10;;;17.70;99.90;;;;;;5051574;28;20466;-69
2021/08/07 06:37:44;;;;;;;19.73;17.73;;;17.90;99.90;;;;;;5048776;28;20464;-69
2021/08/07 06:40:13;;;;;;;19.03;17.10;;;18.00;99.90;;;;;;5059233;28;20494;-69
2021/08/07 06:42:40;;;;;;;19.20;17.60;;;18.10;99.90;;;;;;5050342;28;20470;-69
2021/08/07 06:45:08;;;;;;;18.37;16.83;;;18.20;99.90;;;;;;5053091;28;20455;-69
2021/08/07 06:47:36;;;;;;;18.50;16.90;;;18.30;99.90;;;;;;5047611;28;20939;-69
2021/08/07 06:50:04;;;;;;;21.30;16.93;;;18.40;99.90;;;;;;5054540;28;20529;-70
2021/08/07 06:52:32;;;;;;;19.67;17.70;;;18.60;99.90;;;;;;5056348;28;20455;-70
2021/08/07 06:54:59;;;;;;;18.63;17.00;;;18.70;99.90;;;;;;5051122;28;20456;-69
2021/08/07 06:57:26;;;;;;;19.10;17.50;;;18.80;99.90;;;;;;5058339;28;20459;-69
2021/08/07 06:59:53;;;;;;;18.97;17.47;;;18.90;99.90;;;;;;5046013;28;20491;-69
2021/08/07 07:02:20;;;;;;;18.07;16.37;;;18.90;99.90;;;;;;5050673;28;20785;-71
2021/08/07 07:04:49;;;;;;;17.77;16.27;;;18.90;99.90;;;;;;5053473;28;20459;-69
2021/08/07 07:07:16;;;;;;;17.57;16.10;;;19.00;99.90;;;;;;5049212;28;20467;-70
2021/08/07 07:09:44;;;;;;;17.47;15.93;;;19.10;99.90;;;;;;5052575;28;20577;-70
2021/08/07 07:12:13;;;;;;;18.70;16.90;;;19.10;99.90;;;;;;5050165;28;20464;-69
2021/08/07 07:14:40;;;;;;;17.00;15.50;;;19.30;99.90;;;;;;5054143;28;20954;-69
2021/08/07 07:17:06;;;;;;;16.97;15.70;;;19.30;99.90;;;;;;5050106;28;20476;-70
2021/08/07 07:19:33;;;;;;;16.70;15.70;;;19.40;99.90;;;;;;5049660;28;20982;-69
2021/08/07 07:22:00;;;;;;;18.07;16.23;;;19.60;99.90;;;;;;5057257;28;20464;-72
2021/08/07 07:24:27;;;;;;;17.10;15.77;;;19.80;99.90;;;;;;5048893;28;20542;-71
2021/08/07 07:26:56;;;;;;;17.67;16.17;;;19.90;99.90;;;;;;5046538;28;20470;-68
2021/08/07 07:29:23;;;;;;;17.40;16.10;;;20.00;99.90;;;;;;5051084;28;20456;-69
2021/08/07 07:31:50;;;;;;;16.90;15.90;;;20.00;99.90;;;;;;5054463;28;20464;-68
2021/08/07 07:34:17;;;;;;;15.57;14.53;;;20.20;99.90;;;;;;5053173;28;20478;-68
2021/08/07 07:36:44;;;;;;;15.50;14.67;;;20.50;99.90;;;;;;5044406;28;20467;-68
2021/08/07 07:39:11;;;;;;;17.03;15.90;;;20.80;99.90;;;;;;5056603;28;20937;-70
2021/08/07 07:41:38;;;;;;;16.67;15.63;;;21.00;99.90;;;;;;5050524;28;20456;-68
2021/08/07 07:44:06;;;;;;;15.00;14.10;;;20.90;99.90;;;;;;5049085;28;20463;-69
2021/08/07 07:46:33;;;;;;;16.37;15.37;;;21.20;99.90;;;;;;5047475;28;20471;-68
2021/08/07 07:49:01;;;;;;;16.13;14.73;;;21.30;99.90;;;;;;5051979;28;20487;-69
2021/08/07 07:51:28;;;;;;;16.40;15.00;;;21.40;99.90;;;;;;5056043;28;20459;-70
2021/08/07 07:53:55;;;;;;;15.77;14.50;;;21.40;99.90;;;;;;5052629;28;20459;-70
2021/08/07 07:56:24;;;;;;;16.30;15.03;;;21.40;99.90;;;;;;5051286;28;20466;-68
2021/08/07 07:58:51;;;;;;;15.63;14.73;;;21.50;99.90;;;;;;5053645;28;20490;-69
2021/08/07 08:01:20;;;;;;;16.20;14.90;;;21.50;99.90;;;;;;5052400;28;20463;-71
2021/08/07 08:03:47;;;;;;;16.33;14.90;;;21.50;99.90;;;;;;5056306;28;20459;-68
2021/08/07 08:06:14;;;;;;;14.50;13.53;;;21.70;99.90;;;;;;5052720;28;20463;-69
2021/08/07 08:08:42;;;;;;;15.23;14.27;;;21.90;99.90;;;;;;5050602;28;20574;-69
2021/08/07 08:11:09;;;;;;;15.67;14.47;;;21.90;99.90;;;;;;5054856;28;20904;-69
2021/08/07 08:13:37;;;;;;;14.70;13.90;;;22.00;99.90;;;;;;5050866;28;20463;-68
2021/08/07 08:16:05;;;;;;;14.87;14.07;;;21.80;99.90;;;;;;5055532;28;20492;-68
2021/08/07 08:18:33;;;;;;;15.07;14.07;;;21.80;99.90;;;;;;5051994;28;20533;-69
2021/08/07 08:21:00;;;;;;;14.70;13.47;;;22.00;99.90;;;;;;5050243;28;20482;-69
2021/08/07 08:23:27;;;;;;;14.33;13.43;;;22.00;99.90;;;;;;5049404;28;20459;-71
2021/08/07 08:25:54;;;;;;;14.47;13.37;;;22.30;99.90;;;;;;5049065;28;20798;-71
2021/08/07 08:28:21;;;;;;;14.60;13.60;;;22.40;99.90;;;;;;5050727;28;21212;-68
2021/08/07 08:30:48;;;;;;;14.73;13.63;;;22.60;99.90;;;;;;5056505;28;20464;-68
2021/08/07 08:33:15;;;;;;;14.47;13.67;;;23.00;99.90;;;;;;5050709;28;20467;-68
2021/08/07 08:35:46;;;;;;;14.67;13.30;;;23.20;99.90;;;;;;5051282;28;20475;-71
2021/08/07 08:38:14;;;;;;;14.70;13.57;;;22.90;99.90;;;;;;5047992;28;20977;-68
2021/08/07 08:40:41;;;;;;;14.30;13.40;;;23.00;99.90;;;;;;5052857;28;20480;-68
2021/08/07 08:43:08;;;;;;;14.50;13.53;;;23.10;99.90;;;;;;5055981;28;20566;-69
2021/08/07 08:45:35;;;;;;;14.10;13.30;;;23.30;99.90;;;;;;5057235;28;20463;-69
2021/08/07 08:48:03;;;;;;;15.60;13.90;;;23.00;99.90;;;;;;5057446;28;20475;-69
2021/08/07 08:50:30;;;;;;;15.73;14.50;;;23.20;99.90;;;;;;5054745;28;20473;-70
2021/08/07 08:53:00;;;;;;;14.73;13.70;;;23.20;99.90;;;;;;5056679;28;20459;-69
2021/08/07 08:55:27;;;;;;;15.50;13.97;;;23.20;99.90;;;;;;5051532;28;21056;-68
2021/08/07 08:57:54;;;;;;;14.67;13.37;;;23.40;99.90;;;;;;5058074;28;20450;-71
2021/08/07 09:00:21;;;;;;;14.60;13.33;;;23.70;99.90;;;;;;5053711;28;20491;-69
2021/08/07 09:02:47;;;;;;;13.97;13.27;;;23.60;99.90;;;;;;5054312;28;20462;-68
2021/08/07 09:05:15;;;;;;;14.30;13.50;;;23.70;99.90;;;;;;5054147;28;20476;-69
2021/08/07 09:07:44;;;;;;;15.00;13.80;;;23.70;99.90;;;;;;5055614;28;20459;-69
2021/08/07 09:10:13;;;;;;;14.50;13.70;;;24.00;99.90;;;;;;5055354;28;20557;-71
2021/08/07 09:12:43;;;;;;;14.50;13.20;;;24.00;99.90;;;;;;5048456;28;20463;-70
2021/08/07 09:15:33;;;;;;;14.03;13.10;;;23.90;99.90;;;;;;5049087;28;20459;-71
2021/08/07 09:18:17;;;;;;;14.40;13.50;;;24.30;99.90;;;;;;5052159;28;20478;-68
2021/08/07 09:20:45;;;;;;;15.27;13.83;;;24.10;99.90;;;;;;5051311;28;20483;-68
2021/08/07 09:23:12;;;;;;;14.97;14.07;;;24.30;99.90;;;;;;5051684;28;21068;-70
2021/08/07 09:25:41;;;;;;;14.37;13.57;;;24.50;99.90;;;;;;5052749;28;20466;-68
2021/08/07 09:28:10;;;;;;;14.30;13.40;;;24.40;99.90;;;;;;5046780;28;20782;-69
2021/08/07 09:30:38;;;;;;;14.50;13.47;;;24.20;99.90;;;;;;5057865;28;20498;-70
2021/08/07 09:33:08;;;;;;;15.00;13.90;;;24.70;99.90;;;;;;5054007;28;20459;-70
2021/08/07 09:35:37;;;;;;;15.70;14.33;;;24.60;99.90;;;;;;5050929;28;21221;-70
2021/08/07 09:38:14;;;;;;;13.90;12.80;;;24.40;99.90;;;;;;5052728;28;20476;-71
2021/08/07 09:40:48;;;;;;;14.90;13.80;;;24.50;99.90;;;;;;5051296;28;20497;-68
2021/08/07 09:43:18;;;;;;;14.47;13.53;;;25.00;99.90;;;;;;5050502;28;20487;-68
2021/08/07 09:45:57;;;;;;;15.63;14.60;;;25.70;99.90;;;;;;5053399;28;20467;-71
2021/08/07 09:48:31;;;;;;;16.37;15.20;;;25.60;99.90;;;;;;5052514;28;20495;-71
2021/08/07 09:50:58;;;;;;;15.03;14.20;;;25.60;99.90;;;;;;5054502;28;20458;-71
2021/08/07 09:53:27;;;;;;;14.97;14.07;;;25.40;99.90;;;;;;5050057;28;20992;-71
2021/08/07 09:56:05;;;;;;;15.70;14.70;;;25.20;99.90;;;;;;5050118;28;20452;-70
2021/08/07 09:58:32;;;;;;;14.80;13.90;;;25.10;99.90;;;;;;5053230;28;20459;-69
2021/08/07 10:00:59;;;;;;;14.83;13.93;;;25.30;99.90;;;;;;5052892;28;20487;-70
2021/08/07 10:03:29;;;;;;;14.83;13.93;;;25.10;99.90;;;;;;5051104;28;20816;-68
2021/08/07 10:05:56;;;;;;;15.77;14.10;;;24.50;99.90;;;;;;5051834;28;20495;-69
2021/08/07 10:08:24;;;;;;;14.90;14.10;;;24.50;99.90;;;;;;5050982;28;20451;-72
2021/08/07 10:11:08;;;;;;;15.63;14.70;;;24.70;99.90;;;;;;5051868;28;20458;-69
2021/08/07 10:13:36;;;;;;;16.33;14.33;;;24.70;99.90;;;;;;5049864;28;20463;-73
2021/08/07 10:16:04;;;;;;;14.63;13.67;;;25.20;99.90;;;;;;5050037;28;20478;-69
2021/08/07 10:18:33;;;;;;;15.90;14.97;;;25.40;99.90;;;;;;5048683;28;20509;-69
2021/08/07 10:21:03;;;;;;;15.50;14.60;;;25.30;99.90;;;;;;5054055;28;20487;-71
2021/08/07 10:23:32;;;;;;;14.20;13.40;;;25.10;99.90;;;;;;5054145;28;20478;-70
2021/08/07 10:26:00;;;;;;;15.40;14.40;;;25.80;99.90;;;;;;5049054;28;20456;-69
2021/08/07 10:28:31;;;;;;;15.63;14.73;;;26.20;99.90;;;;;;5049518;28;20459;-71
2021/08/07 10:31:02;;;;;;;15.43;14.10;;;26.20;99.90;;;;;;5052713;28;20459;-71
2021/08/07 10:33:31;;;;;;;15.57;14.67;;;25.70;99.90;;;;;;5053026;28;20534;-68
2021/08/07 10:35:58;;;;;;;15.00;14.20;;;25.90;99.90;;;;;;5055185;28;20817;-72
2021/08/07 10:38:26;;;;;;;15.97;15.00;;;26.40;99.90;;;;;;5049520;28;20463;-71
2021/08/07 10:40:54;;;;;;;16.20;15.20;;;26.10;99.90;;;;;;5049437;28;20487;-70
2021/08/07 10:43:23;;;;;;;16.67;15.47;;;25.20;99.90;;;;;;5054648;28;22957;-69
2021/08/07 10:45:51;;;;;;;15.43;14.63;;;25.10;99.90;;;;;;5052072;28;20475;-68
2021/08/07 10:48:41;;;;;;;15.27;14.40;;;25.00;99.90;;;;;;5045349;28;20476;-72
2021/08/07 10:51:34;;;;;;;15.40;14.03;;;24.80;99.90;;;;;;5056631;28;20459;-68
2021/08/07 10:54:03;;;;;;;15.37;14.40;;;25.10;99.90;;;;;;5036711;28;20467;-70
2021/08/07 10:56:42;;;;;;;15.50;14.40;;;25.70;99.90;;;;;;5054333;28;20984;-70
2021/08/07 10:59:24;;;;;;;16.23;14.80;;;26.30;99.90;;;;;;5055772;28;20455;-67
2021/08/07 11:01:52;;;;;;;15.73;14.37;;;26.30;99.90;;;;;;5054272;28;20472;-72
2021/08/07 11:04:27;;;;;;;14.50;13.70;;;26.30;99.90;;;;;;5059566;28;20463;-68
2021/08/07 11:06:57;;;;;;;14.70;13.80;;;26.60;99.90;;;;;;5052510;28;20981;-68
2021/08/07 11:09:29;;;;;;;14.93;14.20;;;26.60;99.90;;;;;;5051099;28;20456;-67
2021/08/07 11:12:18;;;;;;;15.17;14.33;;;26.30;99.90;;;;;;5053056;28;20456;-67
2021/08/07 11:14:51;;;;;;;14.53;13.67;;;26.10;99.90;;;;;;5039728;28;20467;-67
2021/08/07 11:17:51;;;;;;;15.80;14.80;;;26.40;99.90;;;;;;5052834;28;20837;-67
2021/08/07 11:20:40;;;;;;;16.17;14.70;;;26.70;99.90;;;;;;5047275;28;20491;-68
2021/08/07 11:23:15;;;;;;;15.17;14.30;;;26.00;99.90;;;;;;5055509;28;20526;-67
2021/08/07 11:25:49;;;;;;;14.47;13.67;;;25.50;99.90;;;;;;5049816;28;20464;-67
2021/08/07 11:28:18;;;;;;;14.70;13.90;;;25.20;99.90;;;;;;5049810;28;20467;-67
2021/08/07 11:30:45;;;;;;;15.17;14.37;;;25.60;99.90;;;;;;5044506;28;20451;-67
2021/08/07 11:33:33;;;;;;;15.20;14.40;;;25.30;99.90;;;;;;5047028;28;20938;-67
2021/08/07 11:36:05;;;;;;;14.63;13.70;;;25.50;99.90;;;;;;5042959;28;20463;-65
2021/08/07 11:38:33;;;;;;;14.93;13.97;;;26.10;99.90;;;;;;5049524;28;20946;-69
2021/08/07 11:41:02;;;;;;;14.63;13.93;;;25.90;99.90;;;;;;5044339;28;20970;-68
2021/08/07 11:43:30;;;;;;;14.83;14.00;;;26.10;99.90;;;;;;5055225;28;20455;-69
2021/08/07 11:46:05;;;;;;;15.30;14.23;;;25.70;99.90;;;;;;5050682;28;20463;-69
2021/08/07 11:48:34;;;;;;;15.70;14.80;;;25.40;99.90;;;;;;5050684;28;20478;-67
2021/08/07 11:51:05;;;;;;;15.13;14.27;;;25.60;99.90;;;;;;5051683;28;20466;-67
2021/08/07 11:53:32;;;;;;;14.30;13.60;;;25.50;99.90;;;;;;5048608;28;20464;-67
2021/08/07 11:56:01;;;;;;;15.13;14.33;;;25.40;99.90;;;;;;5050049;28;20483;-69
2021/08/07 11:58:28;;;;;;;15.13;14.33;;;25.80;99.90;;;;;;5044100;28;20468;-66
2021/08/07 12:00:59;;;;;;;14.10;13.20;;;25.60;99.90;;;;;;5057314;28;20486;-66
2021/08/07 12:03:26;;;;;;;15.03;14.03;;;25.60;99.90;;;;;;5041754;28;20835;-70
2021/08/07 12:05:54;;;;;;;15.10;14.00;;;25.60;99.90;;;;;;5046302;28;20463;-70
2021/08/07 12:08:24;;;;;;;14.30;13.60;;;26.20;99.90;;;;;;5047939;28;20677;-66
2021/08/07 12:10:53;;;;;;;15.27;14.30;;;26.90;99.90;;;;;;5046957;28;20467;-67
2021/08/07 12:13:22;;;;;;;15.40;14.60;;;27.80;99.90;;;;;;5040780;28;20463;-67
2021/08/07 12:15:55;;;;;;;14.90;13.93;;;28.40;99.30;;;;;;5047889;28;20483;-68
2021/08/07 12:18:23;;;;;;;15.50;14.50;;;28.60;99.60;;;;;;5053495;28;20455;-67
2021/08/07 12:20:50;;;;;;;15.50;14.60;;;28.80;98.40;;;;;;5053716;28;20478;-68
2021/08/07 12:23:17;;;;;;;15.27;14.37;;;28.90;97.80;;;;;;5053638;28;20462;-68
2021/08/07 12:25:45;;;;;;;14.57;13.67;;;28.60;98.60;;;;;;5051276;28;20512;-70
2021/08/07 12:28:15;;;;;;;14.10;13.37;;;29.00;96.70;;;;;;5053305;28;20459;-69
2021/08/07 12:30:53;;;;;;;15.87;15.03;;;29.90;95.50;;;;;;5062743;28;20500;-66
2021/08/07 12:33:22;;;;;;;15.23;14.50;;;30.60;92.30;;;;;;5061122;28;20474;-67
2021/08/07 12:35:49;;;;;;;15.60;14.70;;;30.60;92.80;;;;;;5052957;28;20461;-69